sensor_id;sensor_type;location;lat;lon;timestamp;pressure;altitude;pressure_sealevel;temperature;humidity
56084;BME280;41958;52.416;13.428;2023-02-23T00:01:55;100786.00;;;5.16;90.55
56084;BME280;41958;52.416;13.428;2023-02-23T00:04:22;100794.31;;;5.16;91.08
56084;BME280;41958;52.416;13.428;2023-02-23T00:06:48;100786.41;;;5.10;91.21
56084;BME280;41958;52.416;13.428;2023-02-23T00:09:16;100792.88;;;5.19;91.18
56084;BME280;41958;52.416;13.428;2023-02-23T00:11:55;100782.72;;;5.14;91.69
56084;BME280;41958;52.416;13.428;2023-02-23T00:14:25;100796.06;;;5.12;91.51
56084;BME280;41958;52.416;13.428;2023-02-23T00:16:51;100789.50;;;5.08;91.98
56084;BME280;41958;52.416;13.428;2023-02-23T00:19:18;100786.31;;;5.15;90.95
56084;BME280;41958;52.416;13.428;2023-02-23T00:21:43;100777.31;;;5.09;91.57
56084;BME280;41958;52.416;13.428;2023-02-23T00:24:11;100780.25;;;5.13;91.16
56084;BME280;41958;52.416;13.428;2023-02-23T00:26:39;100772.66;;;5.18;90.79
56084;BME280;41958;52.416;13.428;2023-02-23T00:29:17;100778.31;;;5.13;92.05
56084;BME280;41958;52.416;13.428;2023-02-23T00:31:43;100773.41;;;5.10;91.28
56084;BME280;41958;52.416;13.428;2023-02-23T00:34:11;100772.97;;;5.17;91.19
56084;BME280;41958;52.416;13.428;2023-02-23T00:36:37;100762.38;;;5.19;90.85
56084;BME280;41958;52.416;13.428;2023-02-23T00:39:05;100770.63;;;5.10;91.66
56084;BME280;41958;52.416;13.428;2023-02-23T00:41:43;100766.28;;;5.18;91.28
56084;BME280;41958;52.416;13.428;2023-02-23T00:44:08;100773.69;;;5.09;91.27
56084;BME280;41958;52.416;13.428;2023-02-23T00:46:33;100778.75;;;5.06;91.75
56084;BME280;41958;52.416;13.428;2023-02-23T00:48:59;100766.97;;;5.01;92.29
56084;BME280;41958;52.416;13.428;2023-02-23T00:51:26;100771.69;;;4.86;92.69
56084;BME280;41958;52.416;13.428;2023-02-23T00:53:55;100766.25;;;4.95;92.39
56084;BME280;41958;52.416;13.428;2023-02-23T00:56:21;100772.28;;;4.97;92.92
56084;BME280;41958;52.416;13.428;2023-02-23T00:58:47;100764.03;;;4.83;93.31
56084;BME280;41958;52.416;13.428;2023-02-23T01:01:13;100763.50;;;4.95;92.67
56084;BME280;41958;52.416;13.428;2023-02-23T01:03:40;100767.28;;;4.99;92.15
56084;BME280;41958;52.416;13.428;2023-02-23T01:06:08;100758.75;;;4.96;92.85
56084;BME280;41958;52.416;13.428;2023-02-23T01:08:36;100766.97;;;4.87;92.98
56084;BME280;41958;52.416;13.428;2023-02-23T01:11:06;100763.59;;;4.90;92.72
56084;BME280;41958;52.416;13.428;2023-02-23T01:13:34;100760.63;;;4.86;93.13
56084;BME280;41958;52.416;13.428;2023-02-23T01:15:59;100765.44;;;4.95;92.92
56084;BME280;41958;52.416;13.428;2023-02-23T01:18:25;100770.34;;;4.98;93.09
56084;BME280;41958;52.416;13.428;2023-02-23T01:20:51;100770.66;;;4.96;92.96
56084;BME280;41958;52.416;13.428;2023-02-23T01:23:16;100775.16;;;4.92;93.10
56084;BME280;41958;52.416;13.428;2023-02-23T01:25:43;100760.31;;;4.88;92.83
56084;BME280;41958;52.416;13.428;2023-02-23T01:28:09;100769.63;;;4.92;93.27
56084;BME280;41958;52.416;13.428;2023-02-23T01:30:35;100762.47;;;4.91;93.47
56084;BME280;41958;52.416;13.428;2023-02-23T01:33:01;100760.94;;;4.85;93.46
56084;BME280;41958;52.416;13.428;2023-02-23T01:35:26;100743.69;;;4.88;93.26
56084;BME280;41958;52.416;13.428;2023-02-23T01:37:52;100749.88;;;4.85;93.57
56084;BME280;41958;52.416;13.428;2023-02-23T01:40:20;100747.91;;;4.85;94.36
56084;BME280;41958;52.416;13.428;2023-02-23T01:42:56;100755.47;;;4.94;92.50
56084;BME280;41958;52.416;13.428;2023-02-23T01:45:34;100751.69;;;4.89;93.25
56084;BME280;41958;52.416;13.428;2023-02-23T01:48:05;100746.78;;;4.86;93.03
56084;BME280;41958;52.416;13.428;2023-02-23T01:50:37;100728.75;;;4.75;93.73
56084;BME280;41958;52.416;13.428;2023-02-23T01:53:04;100748.22;;;4.84;93.80
56084;BME280;41958;52.416;13.428;2023-02-23T01:55:29;100737.97;;;4.84;93.79
56084;BME280;41958;52.416;13.428;2023-02-23T01:58:03;100737.78;;;4.81;94.01
56084;BME280;41958;52.416;13.428;2023-02-23T02:00:29;100731.22;;;4.77;93.85
56084;BME280;41958;52.416;13.428;2023-02-23T02:03:01;100736.44;;;4.78;93.87
56084;BME280;41958;52.416;13.428;2023-02-23T02:05:28;100727.81;;;4.80;93.48
56084;BME280;41958;52.416;13.428;2023-02-23T02:07:54;100730.91;;;4.78;93.29
56084;BME280;41958;52.416;13.428;2023-02-23T02:10:25;100723.41;;;4.79;94.21
56084;BME280;41958;52.416;13.428;2023-02-23T02:13:17;100706.41;;;4.71;93.11
56084;BME280;41958;52.416;13.428;2023-02-23T02:15:58;100724.53;;;4.92;93.94
56084;BME280;41958;52.416;13.428;2023-02-23T02:21:30;100713.97;;;4.80;94.00
56084;BME280;41958;52.416;13.428;2023-02-23T02:24:27;100714.19;;;4.83;93.88
56084;BME280;41958;52.416;13.428;2023-02-23T02:30:11;100704.66;;;4.76;94.01
56084;BME280;41958;52.416;13.428;2023-02-23T02:33:14;100703.75;;;4.66;94.44
56084;BME280;41958;52.416;13.428;2023-02-23T02:38:52;100708.38;;;4.71;94.16
56084;BME280;41958;52.416;13.428;2023-02-23T02:41:31;100703.75;;;4.66;94.40
56084;BME280;41958;52.416;13.428;2023-02-23T02:44:07;100704.00;;;4.56;94.33
56084;BME280;41958;52.416;13.428;2023-02-23T02:46:39;100702.00;;;4.70;94.20
56084;BME280;41958;52.416;13.428;2023-02-23T02:49:31;100694.84;;;4.69;94.37
56084;BME280;41958;52.416;13.428;2023-02-23T02:52:01;100697.91;;;4.68;94.27
56084;BME280;41958;52.416;13.428;2023-02-23T02:56:56;100694.13;;;4.64;94.23
56084;BME280;41958;52.416;13.428;2023-02-23T02:59:24;100694.84;;;4.69;94.18
56084;BME280;41958;52.416;13.428;2023-02-23T03:02:17;100688.56;;;4.64;94.16
56084;BME280;41958;52.416;13.428;2023-02-23T03:05:06;100692.69;;;4.66;94.03
56084;BME280;41958;52.416;13.428;2023-02-23T03:08:11;100686.75;;;4.59;94.54
56084;BME280;41958;52.416;13.428;2023-02-23T03:13:59;100678.25;;;4.55;94.84
56084;BME280;41958;52.416;13.428;2023-02-23T03:17:07;100672.53;;;4.52;94.58
56084;BME280;41958;52.416;13.428;2023-02-23T03:19:57;100683.91;;;4.50;94.09
56084;BME280;41958;52.416;13.428;2023-02-23T03:29:14;100683.91;;;4.50;95.18
56084;BME280;41958;52.416;13.428;2023-02-23T03:32:10;100681.75;;;4.47;95.28
56084;BME280;41958;52.416;13.428;2023-02-23T03:35:21;100681.25;;;4.45;95.02
56084;BME280;41958;52.416;13.428;2023-02-23T03:38:19;100677.25;;;4.37;95.01
56084;BME280;41958;52.416;13.428;2023-02-23T03:41:07;100678.47;;;4.31;95.64
56084;BME280;41958;52.416;13.428;2023-02-23T03:43:57;100666.28;;;4.32;95.28
56084;BME280;41958;52.416;13.428;2023-02-23T03:46:45;100670.41;;;4.21;95.42
56084;BME280;41958;52.416;13.428;2023-02-23T03:49:33;100663.88;;;4.17;96.43
56084;BME280;41958;52.416;13.428;2023-02-23T03:52:29;100665.41;;;4.09;96.82
56084;BME280;41958;52.416;13.428;2023-02-23T03:55:17;100662.22;;;4.16;96.75
56084;BME280;41958;52.416;13.428;2023-02-23T03:58:06;100654.03;;;4.11;96.83
56084;BME280;41958;52.416;13.428;2023-02-23T04:00:51;100663.56;;;4.04;97.66
56084;BME280;41958;52.416;13.428;2023-02-23T04:03:40;100631.22;;;3.91;97.24
56084;BME280;41958;52.416;13.428;2023-02-23T04:06:27;100641.66;;;3.94;96.98
56084;BME280;41958;52.416;13.428;2023-02-23T04:09:14;100660.59;;;4.01;96.90
56084;BME280;41958;52.416;13.428;2023-02-23T04:12:08;100649.63;;;3.96;97.39
56084;BME280;41958;52.416;13.428;2023-02-23T04:14:55;100661.81;;;3.95;97.74
56084;BME280;41958;52.416;13.428;2023-02-23T04:17:28;100648.59;;;3.92;97.43
56084;BME280;41958;52.416;13.428;2023-02-23T04:19:54;100663.06;;;3.88;97.78
56084;BME280;41958;52.416;13.428;2023-02-23T04:22:20;100655.88;;;3.87;97.24
56084;BME280;41958;52.416;13.428;2023-02-23T04:24:47;100655.38;;;3.85;97.82
56084;BME280;41958;52.416;13.428;2023-02-23T04:27:13;100649.41;;;3.78;97.94
56084;BME280;41958;52.416;13.428;2023-02-23T04:29:38;100650.44;;;3.82;97.44
56084;BME280;41958;52.416;13.428;2023-02-23T04:32:04;100648.28;;;3.79;97.64
56084;BME280;41958;52.416;13.428;2023-02-23T04:34:29;100650.75;;;3.81;97.84
56084;BME280;41958;52.416;13.428;2023-02-23T04:36:55;100651.59;;;3.81;97.51
56084;BME280;41958;52.416;13.428;2023-02-23T04:39:20;100653.59;;;3.76;98.42
56084;BME280;41958;52.416;13.428;2023-02-23T04:41:45;100647.81;;;3.77;97.57
56084;BME280;41958;52.416;13.428;2023-02-23T04:44:12;100644.19;;;3.77;97.90
56084;BME280;41958;52.416;13.428;2023-02-23T04:46:38;100648.28;;;3.79;97.43
56084;BME280;41958;52.416;13.428;2023-02-23T04:49:03;100641.25;;;3.73;97.81
56084;BME280;41958;52.416;13.428;2023-02-23T04:51:28;100634.88;;;3.72;97.99
56084;BME280;41958;52.416;13.428;2023-02-23T04:53:56;100634.88;;;3.72;97.54
56084;BME280;41958;52.416;13.428;2023-02-23T04:56:21;100642.47;;;3.67;97.58
56084;BME280;41958;52.416;13.428;2023-02-23T04:58:47;100636.22;;;3.61;97.66
56084;BME280;41958;52.416;13.428;2023-02-23T05:01:12;100632.91;;;3.59;98.80
56084;BME280;41958;52.416;13.428;2023-02-23T05:03:37;100641.81;;;3.56;98.63
56084;BME280;41958;52.416;13.428;2023-02-23T05:06:02;100635.06;;;3.48;98.80
56084;BME280;41958;52.416;13.428;2023-02-23T05:08:28;100637.50;;;3.50;99.38
56084;BME280;41958;52.416;13.428;2023-02-23T05:10:53;100639.16;;;3.51;98.86
56084;BME280;41958;52.416;13.428;2023-02-23T05:13:18;100633.31;;;3.52;98.72
56084;BME280;41958;52.416;13.428;2023-02-23T05:15:44;100642.84;;;3.46;98.60
56084;BME280;41958;52.416;13.428;2023-02-23T05:18:10;100643.03;;;3.50;98.54
56084;BME280;41958;52.416;13.428;2023-02-23T05:20:35;100636.78;;;3.44;99.31
56084;BME280;41958;52.416;13.428;2023-02-23T05:23:00;100642.53;;;3.48;98.22
56084;BME280;41958;52.416;13.428;2023-02-23T05:25:25;100639.88;;;3.43;99.22
56084;BME280;41958;52.416;13.428;2023-02-23T05:27:51;100633.91;;;3.35;99.48
56084;BME280;41958;52.416;13.428;2023-02-23T05:30:16;100638.03;;;3.38;99.41
56084;BME280;41958;52.416;13.428;2023-02-23T05:32:41;100635.25;;;3.38;99.67
56084;BME280;41958;52.416;13.428;2023-02-23T05:35:07;100636.38;;;3.37;99.07
56084;BME280;41958;52.416;13.428;2023-02-23T05:37:33;100642.81;;;3.32;98.68
56084;BME280;41958;52.416;13.428;2023-02-23T05:39:58;100640.34;;;3.31;99.78
56084;BME280;41958;52.416;13.428;2023-02-23T05:42:24;100641.09;;;3.36;98.67
56084;BME280;41958;52.416;13.428;2023-02-23T05:44:49;100650.28;;;3.32;98.85
56084;BME280;41958;52.416;13.428;2023-02-23T05:47:14;100644.03;;;3.26;98.94
56084;BME280;41958;52.416;13.428;2023-02-23T05:49:40;100648.22;;;3.24;99.48
56084;BME280;41958;52.416;13.428;2023-02-23T05:52:05;100651.88;;;3.19;99.84
56084;BME280;41958;52.416;13.428;2023-02-23T05:54:30;100651.66;;;3.15;100.00
56084;BME280;41958;52.416;13.428;2023-02-23T05:56:55;100656.38;;;3.15;98.84
56084;BME280;41958;52.416;13.428;2023-02-23T05:59:21;100653.88;;;3.13;100.00
56084;BME280;41958;52.416;13.428;2023-02-23T06:01:46;100655.03;;;3.12;100.00
56084;BME280;41958;52.416;13.428;2023-02-23T06:04:11;100660.88;;;3.11;100.00
56084;BME280;41958;52.416;13.428;2023-02-23T06:06:38;100670.03;;;3.06;99.67
56084;BME280;41958;52.416;13.428;2023-02-23T06:09:04;100665.03;;;3.08;100.00
56084;BME280;41958;52.416;13.428;2023-02-23T06:11:30;100668.38;;;3.05;100.00
56084;BME280;41958;52.416;13.428;2023-02-23T06:13:58;100667.56;;;3.04;99.86
56084;BME280;41958;52.416;13.428;2023-02-23T06:16:24;100671.97;;;3.06;99.74
56084;BME280;41958;52.416;13.428;2023-02-23T06:18:49;100666.22;;;3.02;99.85
56084;BME280;41958;52.416;13.428;2023-02-23T06:21:15;100673.09;;;3.04;100.00
56084;BME280;41958;52.416;13.428;2023-02-23T06:23:40;100670.88;;;3.07;99.76
56084;BME280;41958;52.416;13.428;2023-02-23T06:26:05;100668.38;;;3.05;100.00
56084;BME280;41958;52.416;13.428;2023-02-23T06:28:31;100679.16;;;3.07;99.82
56084;BME280;41958;52.416;13.428;2023-02-23T06:30:57;100679.97;;;3.07;100.00
56084;BME280;41958;52.416;13.428;2023-02-23T06:33:22;100671.38;;;3.09;100.00
56084;BME280;41958;52.416;13.428;2023-02-23T06:35:48;100679.03;;;3.12;100.00
56084;BME280;41958;52.416;13.428;2023-02-23T06:38:13;100669.56;;;3.18;100.00
56084;BME280;41958;52.416;13.428;2023-02-23T06:40:38;100672.56;;;3.22;99.78
56084;BME280;41958;52.416;13.428;2023-02-23T06:43:04;100673.69;;;3.20;99.84
56084;BME280;41958;52.416;13.428;2023-02-23T06:45:30;100685.69;;;3.30;100.00
56084;BME280;41958;52.416;13.428;2023-02-23T06:47:56;100681.69;;;3.36;99.33
56084;BME280;41958;52.416;13.428;2023-02-23T06:50:21;100680.50;;;3.42;99.57
56084;BME280;41958;52.416;13.428;2023-02-23T06:52:46;100678.94;;;3.50;98.89
56084;BME280;41958;52.416;13.428;2023-02-23T06:55:12;100679.09;;;3.59;98.38
56084;BME280;41958;52.416;13.428;2023-02-23T06:57:38;100680.75;;;3.60;98.27
56084;BME280;41958;52.416;13.428;2023-02-23T07:00:06;100676.00;;;3.60;97.72
56084;BME280;41958;52.416;13.428;2023-02-23T07:02:31;100674.59;;;3.63;97.90
56084;BME280;41958;52.416;13.428;2023-02-23T07:04:56;100679.00;;;3.64;98.13
56084;BME280;41958;52.416;13.428;2023-02-23T07:07:22;100680.63;;;3.65;98.24
56084;BME280;41958;52.416;13.428;2023-02-23T07:09:48;100677.75;;;3.70;98.40
56084;BME280;41958;52.416;13.428;2023-02-23T07:12:13;100676.88;;;3.75;98.32
56084;BME280;41958;52.416;13.428;2023-02-23T07:14:38;100680.97;;;3.77;98.20
56084;BME280;41958;52.416;13.428;2023-02-23T07:17:04;100676.66;;;3.85;97.31
56084;BME280;41958;52.416;13.428;2023-02-23T07:19:30;100676.56;;;3.90;97.44
56084;BME280;41958;52.416;13.428;2023-02-23T07:21:55;100675.63;;;3.95;97.69
56084;BME280;41958;52.416;13.428;2023-02-23T07:24:21;100679.84;;;3.92;97.57
56084;BME280;41958;52.416;13.428;2023-02-23T07:26:47;100681.91;;;4.00;97.59
56084;BME280;41958;52.416;13.428;2023-02-23T07:29:13;100674.59;;;3.91;97.30
56084;BME280;41958;52.416;13.428;2023-02-23T07:31:39;100678.22;;;4.05;97.70
56084;BME280;41958;52.416;13.428;2023-02-23T07:34:06;100674.09;;;4.02;96.92
56084;BME280;41958;52.416;13.428;2023-02-23T07:36:31;100674.94;;;4.03;97.61
56084;BME280;41958;52.416;13.428;2023-02-23T07:38:57;100676.25;;;4.05;96.89
56084;BME280;41958;52.416;13.428;2023-02-23T07:41:22;100670.63;;;4.11;97.55
56084;BME280;41958;52.416;13.428;2023-02-23T07:43:47;100675.00;;;4.26;97.57
56084;BME280;41958;52.416;13.428;2023-02-23T07:46:13;100676.44;;;4.23;97.15
56084;BME280;41958;52.416;13.428;2023-02-23T07:48:39;100678.19;;;4.19;97.07
56084;BME280;41958;52.416;13.428;2023-02-23T07:51:08;100671.66;;;4.29;96.53
56084;BME280;41958;52.416;13.428;2023-02-23T07:53:34;100669.28;;;4.36;96.96
56084;BME280;41958;52.416;13.428;2023-02-23T07:55:59;100660.69;;;4.24;96.34
56084;BME280;41958;52.416;13.428;2023-02-23T07:58:25;100672.13;;;4.45;96.15
56084;BME280;41958;52.416;13.428;2023-02-23T08:00:51;100668.22;;;4.46;96.04
56084;BME280;41958;52.416;13.428;2023-02-23T08:03:16;100668.75;;;4.48;96.89
56084;BME280;41958;52.416;13.428;2023-02-23T08:05:41;100662.06;;;4.49;96.65
56084;BME280;41958;52.416;13.428;2023-02-23T08:08:09;100668.31;;;4.54;96.35
56084;BME280;41958;52.416;13.428;2023-02-23T08:10:35;100665.09;;;4.61;96.31
56084;BME280;41958;52.416;13.428;2023-02-23T08:13:00;100665.53;;;4.68;96.46
56084;BME280;41958;52.416;13.428;2023-02-23T08:15:25;100666.66;;;4.67;96.45
56084;BME280;41958;52.416;13.428;2023-02-23T08:17:50;100666.97;;;4.66;96.10
56084;BME280;41958;52.416;13.428;2023-02-23T08:20:16;100673.28;;;4.80;96.83
56084;BME280;41958;52.416;13.428;2023-02-23T08:22:42;100648.28;;;4.71;96.40
56084;BME280;41958;52.416;13.428;2023-02-23T08:25:07;100663.06;;;4.89;95.74
56084;BME280;41958;52.416;13.428;2023-02-23T08:27:34;100674.28;;;4.84;95.90
56084;BME280;41958;52.416;13.428;2023-02-23T08:30:00;100671.81;;;4.83;95.40
56084;BME280;41958;52.416;13.428;2023-02-23T08:32:29;100681.34;;;4.90;96.30
56084;BME280;41958;52.416;13.428;2023-02-23T08:34:55;100659.63;;;4.84;95.55
56084;BME280;41958;52.416;13.428;2023-02-23T08:37:22;100669.78;;;4.88;96.96
56084;BME280;41958;52.416;13.428;2023-02-23T08:39:47;100665.97;;;5.07;95.75
56084;BME280;41958;52.416;13.428;2023-02-23T08:42:12;100672.53;;;5.11;95.70
56084;BME280;41958;52.416;13.428;2023-02-23T08:44:38;100668.94;;;5.11;95.92
56084;BME280;41958;52.416;13.428;2023-02-23T08:47:03;100667.19;;;5.15;95.30
56084;BME280;41958;52.416;13.428;2023-02-23T08:49:31;100664.63;;;5.18;95.21
56084;BME280;41958;52.416;13.428;2023-02-23T08:51:57;100664.66;;;5.27;96.29
56084;BME280;41958;52.416;13.428;2023-02-23T08:54:22;100657.00;;;5.24;94.92
56084;BME280;41958;52.416;13.428;2023-02-23T08:56:47;100665.41;;;5.42;94.30
56084;BME280;41958;52.416;13.428;2023-02-23T08:59:13;100657.72;;;5.38;94.24
56084;BME280;41958;52.416;13.428;2023-02-23T09:01:39;100670.63;;;5.43;95.51
56084;BME280;41958;52.416;13.428;2023-02-23T09:04:07;100669.09;;;5.60;94.60
56084;BME280;41958;52.416;13.428;2023-02-23T09:06:35;100680.19;;;5.60;94.32
56084;BME280;41958;52.416;13.428;2023-02-23T09:09:01;100665.88;;;5.66;93.68
56084;BME280;41958;52.416;13.428;2023-02-23T09:11:26;100674.41;;;5.79;92.89
56084;BME280;41958;52.416;13.428;2023-02-23T09:13:52;100671.16;;;5.77;92.87
56084;BME280;41958;52.416;13.428;2023-02-23T09:16:17;100669.84;;;5.83;93.06
56084;BME280;41958;52.416;13.428;2023-02-23T09:18:42;100669.59;;;5.93;93.76
56084;BME280;41958;52.416;13.428;2023-02-23T09:21:14;100667.41;;;5.81;93.82
56084;BME280;41958;52.416;13.428;2023-02-23T09:23:43;100677.16;;;6.01;93.63
56084;BME280;41958;52.416;13.428;2023-02-23T09:26:09;100680.09;;;6.05;93.55
56084;BME280;41958;52.416;13.428;2023-02-23T09:28:35;100676.19;;;6.06;93.56
56084;BME280;41958;52.416;13.428;2023-02-23T09:31:08;100677.69;;;6.21;92.12
56084;BME280;41958;52.416;13.428;2023-02-23T09:33:35;100681.13;;;6.18;93.95
56084;BME280;41958;52.416;13.428;2023-02-23T09:36:06;100679.53;;;6.34;92.92
56084;BME280;41958;52.416;13.428;2023-02-23T09:38:32;100677.13;;;6.50;91.89
56084;BME280;41958;52.416;13.428;2023-02-23T09:40:57;100679.75;;;6.64;91.66
56084;BME280;41958;52.416;13.428;2023-02-23T09:49:01;100674.53;;;7.06;91.14
56084;BME280;41958;52.416;13.428;2023-02-23T09:51:38;100683.03;;;7.19;90.06
56084;BME280;41958;52.416;13.428;2023-02-23T09:54:06;100679.41;;;7.36;89.33
56084;BME280;41958;52.416;13.428;2023-02-23T09:56:42;100676.78;;;7.57;88.95
56084;BME280;41958;52.416;13.428;2023-02-23T09:59:13;100681.22;;;7.88;87.58
56084;BME280;41958;52.416;13.428;2023-02-23T10:07:12;100671.59;;;8.24;86.34
56084;BME280;41958;52.416;13.428;2023-02-23T10:12:53;100668.63;;;8.59;84.71
56084;BME280;41958;52.416;13.428;2023-02-23T10:15:43;100664.47;;;8.65;84.70
56084;BME280;41958;52.416;13.428;2023-02-23T10:18:23;100670.25;;;8.81;85.38
56084;BME280;41958;52.416;13.428;2023-02-23T10:23:30;100661.66;;;9.07;83.04
56084;BME280;41958;52.416;13.428;2023-02-23T10:25:58;100660.31;;;9.14;83.06
56084;BME280;41958;52.416;13.428;2023-02-23T10:28:25;100657.22;;;9.27;82.81
56084;BME280;41958;52.416;13.428;2023-02-23T10:30:53;100659.22;;;9.27;83.73
56084;BME280;41958;52.416;13.428;2023-02-23T10:33:23;100667.47;;;9.36;84.16
56084;BME280;41958;52.416;13.428;2023-02-23T10:35:55;100654.78;;;9.59;83.34
56084;BME280;41958;52.416;13.428;2023-02-23T10:38:21;100661.75;;;9.66;81.67
56084;BME280;41958;52.416;13.428;2023-02-23T10:40:53;100660.16;;;9.77;81.44
56084;BME280;41958;52.416;13.428;2023-02-23T10:43:19;100661.88;;;9.69;82.86
56084;BME280;41958;52.416;13.428;2023-02-23T10:45:47;100655.72;;;9.76;83.23
56084;BME280;41958;52.416;13.428;2023-02-23T10:48:20;100654.22;;;9.78;82.66
56084;BME280;41958;52.416;13.428;2023-02-23T10:50:49;100650.47;;;9.62;82.54
56084;BME280;41958;52.416;13.428;2023-02-23T10:53:22;100643.06;;;9.91;81.90
56084;BME280;41958;52.416;13.428;2023-02-23T10:56:06;100640.50;;;9.98;81.75
56084;BME280;41958;52.416;13.428;2023-02-23T10:58:43;100645.63;;;10.08;81.94
56084;BME280;41958;52.416;13.428;2023-02-23T11:01:11;100645.28;;;10.10;81.69
56084;BME280;41958;52.416;13.428;2023-02-23T11:03:41;100645.63;;;10.08;81.18
56084;BME280;41958;52.416;13.428;2023-02-23T11:06:33;100649.00;;;10.14;81.94
56084;BME280;41958;52.416;13.428;2023-02-23T11:09:17;100636.56;;;10.11;83.05
56084;BME280;41958;52.416;13.428;2023-02-23T11:11:56;100638.66;;;10.27;81.38
56084;BME280;41958;52.416;13.428;2023-02-23T11:14:26;100642.38;;;10.43;82.22
56084;BME280;41958;52.416;13.428;2023-02-23T11:16:56;100649.13;;;10.55;81.05
56084;BME280;41958;52.416;13.428;2023-02-23T11:19:36;100642.97;;;10.49;81.88
56084;BME280;41958;52.416;13.428;2023-02-23T11:22:03;100642.97;;;10.49;81.40
56084;BME280;41958;52.416;13.428;2023-02-23T11:24:34;100635.97;;;10.43;82.19
56084;BME280;41958;52.416;13.428;2023-02-23T11:27:03;100635.53;;;10.41;81.78
56084;BME280;41958;52.416;13.428;2023-02-23T11:29:42;100640.13;;;10.61;82.11
56084;BME280;41958;52.416;13.428;2023-02-23T11:32:13;100636.09;;;10.46;81.65
56084;BME280;41958;52.416;13.428;2023-02-23T11:34:39;100634.66;;;10.65;82.04
56084;BME280;41958;52.416;13.428;2023-02-23T11:42:19;100625.13;;;10.94;81.30
56084;BME280;41958;52.416;13.428;2023-02-23T11:45:36;100621.84;;;11.05;80.72
56084;BME280;41958;52.416;13.428;2023-02-23T11:47:39;100617.56;;;10.95;80.76
56084;BME280;41958;52.416;13.428;2023-02-23T11:50:05;100616.78;;;11.10;80.61
56084;BME280;41958;52.416;13.428;2023-02-23T11:52:31;100611.91;;;11.07;81.06
56084;BME280;41958;52.416;13.428;2023-02-23T11:55:03;100593.63;;;11.10;80.45
56084;BME280;41958;52.416;13.428;2023-02-23T11:57:31;100607.97;;;11.08;80.97
56084;BME280;41958;52.416;13.428;2023-02-23T12:00:07;100607.38;;;11.03;80.93
56084;BME280;41958;52.416;13.428;2023-02-23T12:02:46;100598.72;;;11.08;80.70
56084;BME280;41958;52.416;13.428;2023-02-23T12:05:21;100597.81;;;11.04;81.52
56084;BME280;41958;52.416;13.428;2023-02-23T12:07:53;100597.41;;;11.18;82.10
56084;BME280;41958;52.416;13.428;2023-02-23T12:13:23;100587.41;;;11.17;81.08
56084;BME280;41958;52.416;13.428;2023-02-23T12:15:55;100586.97;;;11.30;80.45
56084;BME280;41958;52.416;13.428;2023-02-23T12:18:41;100596.44;;;11.26;81.06
56084;BME280;41958;52.416;13.428;2023-02-23T12:21:17;100584.91;;;11.27;80.54
56084;BME280;41958;52.416;13.428;2023-02-23T12:23:45;100591.47;;;11.19;80.80
56084;BME280;41958;52.416;13.428;2023-02-23T12:26:18;100592.03;;;11.25;80.45
56084;BME280;41958;52.416;13.428;2023-02-23T12:28:58;100595.19;;;11.23;80.33
56084;BME280;41958;52.416;13.428;2023-02-23T12:31:37;100593.47;;;11.35;80.37
56084;BME280;41958;52.416;13.428;2023-02-23T12:34:21;100596.09;;;11.43;79.89
56084;BME280;41958;52.416;13.428;2023-02-23T12:36:54;100584.63;;;11.48;79.29
56084;BME280;41958;52.416;13.428;2023-02-23T12:39:26;100590.84;;;11.42;79.82
56084;BME280;41958;52.416;13.428;2023-02-23T12:42:00;100585.09;;;11.51;80.39
56084;BME280;41958;52.416;13.428;2023-02-23T12:44:37;100582.31;;;11.51;80.48
56084;BME280;41958;52.416;13.428;2023-02-23T12:53:22;100581.22;;;11.55;80.12
56084;BME280;41958;52.416;13.428;2023-02-23T13:01:21;100572.28;;;11.50;80.20
56084;BME280;41958;52.416;13.428;2023-02-23T13:04:28;100578.88;;;11.57;80.00
56084;BME280;41958;52.416;13.428;2023-02-23T13:07:28;100570.22;;;11.62;79.56
56084;BME280;41958;52.416;13.428;2023-02-23T13:10:05;100574.09;;;11.74;79.00
56084;BME280;41958;52.416;13.428;2023-02-23T13:15:33;100559.03;;;11.62;79.55
56084;BME280;41958;52.416;13.428;2023-02-23T13:18:14;100555.03;;;11.63;79.07
56084;BME280;41958;52.416;13.428;2023-02-23T13:20:50;100561.81;;;11.62;78.81
56084;BME280;41958;52.416;13.428;2023-02-23T13:23:35;100560.56;;;11.60;79.80
56084;BME280;41958;52.416;13.428;2023-02-23T13:26:13;100554.47;;;11.42;80.14
56084;BME280;41958;52.416;13.428;2023-02-23T13:29:06;100553.03;;;11.32;80.68
56084;BME280;41958;52.416;13.428;2023-02-23T13:31:37;100556.31;;;11.34;80.80
56084;BME280;41958;52.416;13.428;2023-02-23T13:34:09;100553.59;;;11.54;80.50
56084;BME280;41958;52.416;13.428;2023-02-23T13:36:35;100555.13;;;11.51;80.60
56084;BME280;41958;52.416;13.428;2023-02-23T13:39:14;100552.22;;;11.47;80.91
56084;BME280;41958;52.416;13.428;2023-02-23T13:41:52;100553.69;;;11.57;80.83
56084;BME280;41958;52.416;13.428;2023-02-23T13:44:26;100553.31;;;11.59;81.17
56084;BME280;41958;52.416;13.428;2023-02-23T13:49:55;100558.03;;;11.55;81.26
56084;BME280;41958;52.416;13.428;2023-02-23T13:54:59;100558.19;;;11.62;81.45
56084;BME280;41958;52.416;13.428;2023-02-23T13:57:28;100553.47;;;11.50;81.70
56084;BME280;41958;52.416;13.428;2023-02-23T13:59:55;100553.69;;;11.57;81.62
56084;BME280;41958;52.416;13.428;2023-02-23T14:02:36;100555.84;;;11.48;81.96
56084;BME280;41958;52.416;13.428;2023-02-23T14:05:23;100559.00;;;11.46;82.90
56084;BME280;41958;52.416;13.428;2023-02-23T14:07:58;100557.75;;;11.44;82.66
56084;BME280;41958;52.416;13.428;2023-02-23T14:10:29;100561.09;;;11.50;82.58
56084;BME280;41958;52.416;13.428;2023-02-23T14:21:16;100564.59;;;11.30;82.85
56084;BME280;41958;52.416;13.428;2023-02-23T14:26:17;100568.91;;;11.28;83.94